createdAt,value
2018-02-20T00:00:59.995Z,47.17
2018-02-20T00:03:27.029Z,48.57
2018-02-20T00:05:54.040Z,43.07
2018-02-20T00:08:20.403Z,50.50
2018-02-20T00:10:46.713Z,43.73
2018-02-20T00:13:13.006Z,47.77
2018-02-20T00:15:40.050Z,49.93
2018-02-20T00:18:06.331Z,50.03
2018-02-20T00:20:32.600Z,43.43
2018-02-20T00:23:02.861Z,45.13
2018-02-20T00:25:29.129Z,44.70
2018-02-20T00:27:55.433Z,41.00
2018-02-20T00:30:21.707Z,47.53
2018-02-20T00:32:47.993Z,44.77
2018-02-20T00:35:14.282Z,39.50
2018-02-20T00:37:40.551Z,45.30
2018-02-20T00:40:06.894Z,42.57
2018-02-20T00:42:33.166Z,46.57
2018-02-20T00:44:59.436Z,41.37
2018-02-20T00:47:25.734Z,43.80
2018-02-20T00:49:52.745Z,43.03
2018-02-20T00:52:19.041Z,42.37
2018-02-20T00:54:45.313Z,48.97
2018-02-20T00:57:11.595Z,48.00
2018-02-20T00:59:37.900Z,45.60
2018-02-20T01:02:04.934Z,45.03
2018-02-20T01:04:31.236Z,44.40
2018-02-20T01:06:57.530Z,40.90
2018-02-20T01:09:23.787Z,46.87
2018-02-20T01:11:50.088Z,42.30
2018-02-20T01:14:16.359Z,42.87
2018-02-20T01:16:42.655Z,40.30
2018-02-20T01:19:08.905Z,44.70
2018-02-20T01:21:35.466Z,39.57
2018-02-20T01:24:02.272Z,39.07
2018-02-20T01:26:29.718Z,38.57
2018-02-20T01:28:56.022Z,43.57
2018-02-20T01:31:22.290Z,48.87
2018-02-20T01:33:48.549Z,42.60
2018-02-20T01:36:14.875Z,46.53
2018-02-20T01:38:42.851Z,42.27
2018-02-20T01:41:09.978Z,42.57
2018-02-20T01:43:36.237Z,45.07
2018-02-20T01:46:02.521Z,43.30
2018-02-20T01:48:28.851Z,44.57
2018-02-20T01:51:07.192Z,47.43
2018-02-20T01:53:33.528Z,38.03
2018-02-20T01:55:59.796Z,43.23
2018-02-20T01:58:26.078Z,36.00
2018-02-20T02:00:52.437Z,38.63
2018-02-20T02:03:18.707Z,40.40
2018-02-20T02:05:45.001Z,45.63
2018-02-20T02:08:11.262Z,39.67
2018-02-20T02:10:37.590Z,42.23
2018-02-20T02:13:03.894Z,38.73
2018-02-20T02:15:30.219Z,43.93
2018-02-20T02:17:56.510Z,39.33
2018-02-20T02:20:23.522Z,41.87
2018-02-20T02:22:49.807Z,42.03
2018-02-20T02:25:16.114Z,45.27
2018-02-20T02:27:42.381Z,38.10
2018-02-20T02:30:09.486Z,35.77
2018-02-20T02:32:35.779Z,37.60
2018-02-20T02:35:02.163Z,36.00
2018-02-20T02:37:29.212Z,33.60
2018-02-20T02:39:55.494Z,39.60
2018-02-20T02:42:22.810Z,36.73
2018-02-20T02:44:49.902Z,35.27
2018-02-20T02:47:16.197Z,35.60
2018-02-20T02:49:43.201Z,46.60
2018-02-20T02:52:09.502Z,41.73
2018-02-20T02:54:35.763Z,36.43
2018-02-20T02:57:02.851Z,43.77
2018-02-20T02:59:29.154Z,36.67
2018-02-20T03:01:55.457Z,37.77
2018-02-20T03:04:21.790Z,42.93
2018-02-20T03:06:48.093Z,39.17
2018-02-20T03:09:14.369Z,35.63
2018-02-20T03:11:41.411Z,39.87
2018-02-20T03:14:07.745Z,34.40
2018-02-20T03:16:34.110Z,34.67
2018-02-20T03:19:00.395Z,37.63
2018-02-20T03:21:26.748Z,36.33
2018-02-20T03:23:53.049Z,38.90
2018-02-20T03:26:19.322Z,46.30
2018-02-20T03:28:45.609Z,34.80
2018-02-20T03:31:12.641Z,39.80
2018-02-20T03:33:39.669Z,42.67
2018-02-20T03:36:05.954Z,38.50
2018-02-20T03:38:32.261Z,35.77
2018-02-20T03:40:58.538Z,39.97
2018-02-20T03:43:24.794Z,35.60
2018-02-20T03:45:51.066Z,36.97
2018-02-20T03:48:17.364Z,36.10
2018-02-20T03:50:43.640Z,38.63
2018-02-20T03:53:09.949Z,36.33
2018-02-20T03:55:36.234Z,37.37
2018-02-20T03:58:02.490Z,38.80
2018-02-20T04:00:28.770Z,34.27
2018-02-20T04:02:55.118Z,40.80
2018-02-20T04:05:21.418Z,33.80
2018-02-20T04:07:47.773Z,40.03
2018-02-20T04:10:14.041Z,47.50
2018-02-20T04:12:40.378Z,43.73
2018-02-20T04:15:06.682Z,37.93
2018-02-20T04:17:32.972Z,37.57
2018-02-20T04:19:59.240Z,34.23
2018-02-20T04:22:25.527Z,42.00
2018-02-20T04:24:51.826Z,33.30
2018-02-20T04:27:18.143Z,39.97
2018-02-20T04:29:44.421Z,37.93
2018-02-20T04:32:10.700Z,31.37
2018-02-20T04:34:36.992Z,36.50
2018-02-20T04:37:03.292Z,35.43
2018-02-20T04:39:29.584Z,39.47
2018-02-20T04:41:55.893Z,41.17
2018-02-20T04:44:22.202Z,33.93
2018-02-20T04:46:48.491Z,37.10
2018-02-20T04:49:14.790Z,35.93
2018-02-20T04:51:41.117Z,35.33
2018-02-20T04:54:07.413Z,35.73
2018-02-20T04:56:33.689Z,41.13
2018-02-20T04:59:00.708Z,35.70
2018-02-20T05:01:28.701Z,36.33
2018-02-20T05:03:56.923Z,36.73
2018-02-20T05:06:25.239Z,31.10
2018-02-20T05:08:53.867Z,36.67
2018-02-20T05:11:20.150Z,34.63
2018-02-20T05:13:46.434Z,39.70
2018-02-20T05:16:12.689Z,37.40
2018-02-20T05:18:38.990Z,36.67
2018-02-20T05:21:05.284Z,36.10
2018-02-20T05:23:31.550Z,36.37
2018-02-20T05:25:57.868Z,39.60
2018-02-20T05:28:24.140Z,35.90
2018-02-20T05:30:50.454Z,36.10
2018-02-20T05:33:16.715Z,37.00
2018-02-20T05:35:42.976Z,35.60
2018-02-20T05:38:09.274Z,32.37
2018-02-20T05:40:35.559Z,33.73
2018-02-20T05:43:01.859Z,34.97
2018-02-20T05:45:28.171Z,34.53
2018-02-20T05:47:54.431Z,36.40
2018-02-20T05:50:21.595Z,40.23
2018-02-20T05:52:47.858Z,38.63
2018-02-20T05:55:14.154Z,37.83
2018-02-20T05:57:40.456Z,42.17
2018-02-20T06:00:06.770Z,39.23
2018-02-20T06:02:33.587Z,42.67
2018-02-20T06:04:59.979Z,43.40
2018-02-20T06:07:26.280Z,41.30
2018-02-20T06:09:52.560Z,40.53
2018-02-20T06:12:18.972Z,42.80
2018-02-20T06:14:45.266Z,43.90
2018-02-20T06:17:11.537Z,40.13
2018-02-20T06:19:38.752Z,46.03
2018-02-20T06:22:05.775Z,42.97
2018-02-20T06:24:32.078Z,40.23
2018-02-20T06:26:58.391Z,45.37
2018-02-20T06:29:24.702Z,42.57
2018-02-20T06:31:51.356Z,47.60
2018-02-20T06:34:17.704Z,47.03
2018-02-20T06:36:43.973Z,50.13
2018-02-20T06:39:10.279Z,43.60
2018-02-20T06:41:36.550Z,52.10
2018-02-20T06:44:02.862Z,46.53
2018-02-20T06:46:29.148Z,52.80
2018-02-20T06:48:56.231Z,50.50
2018-02-20T06:51:22.519Z,41.97
2018-02-20T06:53:49.526Z,36.37
2018-02-20T06:56:15.785Z,42.27
2018-02-20T06:58:42.079Z,41.43
2018-02-20T07:01:09.107Z,47.77
2018-02-20T07:03:36.120Z,41.03
2018-02-20T07:06:02.491Z,46.53
2018-02-20T07:08:29.005Z,44.13
2018-02-20T07:10:55.299Z,45.17
2018-02-20T07:13:21.768Z,41.07
2018-02-20T07:15:48.032Z,46.57
2018-02-20T07:18:14.365Z,47.03
2018-02-20T07:20:40.635Z,43.03
2018-02-20T07:23:06.921Z,45.60
2018-02-20T07:25:33.188Z,48.73
2018-02-20T07:28:00.238Z,44.70
2018-02-20T07:30:26.544Z,44.50
2018-02-20T07:32:52.846Z,43.60
2018-02-20T07:35:19.959Z,46.00
2018-02-20T07:37:46.243Z,45.77
2018-02-20T07:40:12.519Z,42.53
2018-02-20T07:42:39.535Z,41.47
2018-02-20T07:45:05.847Z,39.93
2018-02-20T07:47:32.899Z,45.13
2018-02-20T07:49:59.950Z,37.60
2018-02-20T07:52:26.261Z,50.20
2018-02-20T07:54:52.543Z,41.50
2018-02-20T07:57:20.567Z,47.17
2018-02-20T07:59:46.871Z,44.73
2018-02-20T08:02:13.138Z,49.33
2018-02-20T08:04:40.193Z,41.40
2018-02-20T08:07:06.480Z,43.90
2018-02-20T08:09:33.498Z,43.07
2018-02-20T08:11:59.792Z,44.93
2018-02-20T08:14:26.074Z,48.07
2018-02-20T08:16:52.371Z,46.13
2018-02-20T08:19:19.395Z,47.33
2018-02-20T08:21:46.408Z,40.63
2018-02-20T08:24:12.765Z,48.60
2018-02-20T08:26:39.783Z,43.33
2018-02-20T08:29:06.870Z,39.03
2018-02-20T08:31:33.142Z,35.73
2018-02-20T08:33:59.435Z,40.63
2018-02-20T08:36:25.752Z,47.37
2018-02-20T08:38:52.788Z,43.27
2018-02-20T08:41:19.831Z,42.53
2018-02-20T08:43:46.856Z,48.23
2018-02-20T08:46:13.928Z,47.03
2018-02-20T08:48:40.989Z,37.73
2018-02-20T08:51:07.274Z,47.07
2018-02-20T08:53:33.598Z,46.07
2018-02-20T08:55:59.892Z,37.87
2018-02-20T08:58:26.171Z,46.67
2018-02-20T09:00:53.228Z,41.57
2018-02-20T09:03:20.270Z,41.20
2018-02-20T09:05:46.566Z,48.43
2018-02-20T09:08:13.639Z,44.87
2018-02-20T09:10:39.953Z,43.30
2018-02-20T09:13:06.260Z,42.23
2018-02-20T09:15:32.538Z,49.20
2018-02-20T09:17:59.587Z,41.47
2018-02-20T09:20:26.599Z,45.40
2018-02-20T09:22:53.612Z,42.93
2018-02-20T09:25:19.931Z,52.20
2018-02-20T09:27:46.212Z,50.83
2018-02-20T09:30:12.530Z,51.80
2018-02-20T09:32:38.840Z,45.00
2018-02-20T09:35:05.128Z,47.20
2018-02-20T09:37:32.161Z,46.93
2018-02-20T09:39:59.183Z,50.10
2018-02-20T09:42:26.226Z,48.60
2018-02-20T09:44:52.512Z,54.30
2018-02-20T09:47:18.810Z,52.27
2018-02-20T09:49:45.159Z,56.67
2018-02-20T09:52:12.206Z,50.00
2018-02-20T09:54:39.266Z,53.27
2018-02-20T09:57:05.787Z,48.43
2018-02-20T09:59:32.067Z,54.97
2018-02-20T10:01:59.156Z,56.37
2018-02-20T10:04:25.455Z,53.20
2018-02-20T10:06:51.790Z,55.43
2018-02-20T10:09:18.088Z,46.07
2018-02-20T10:11:44.375Z,51.07
2018-02-20T10:14:10.682Z,53.17
2018-02-20T10:16:37.705Z,58.63
2018-02-20T10:19:04.744Z,51.03
2018-02-20T10:21:31.772Z,49.17
2018-02-20T10:23:58.793Z,50.47
2018-02-20T10:26:25.083Z,49.87
2018-02-20T10:28:51.346Z,49.77
2018-02-20T10:31:18.408Z,47.03
2018-02-20T10:33:44.687Z,47.67
2018-02-20T10:36:11.734Z,46.97
2018-02-20T10:38:38.030Z,46.17
2018-02-20T10:41:05.046Z,43.47
2018-02-20T10:43:31.344Z,48.70
2018-02-20T10:45:57.668Z,47.83
2018-02-20T10:48:23.996Z,43.97
2018-02-20T10:50:50.295Z,46.87
2018-02-20T10:53:16.559Z,47.53
2018-02-20T10:55:42.855Z,44.47
2018-02-20T10:58:09.875Z,47.83
2018-02-20T11:00:36.192Z,47.07
2018-02-20T11:03:02.495Z,51.87
2018-02-20T11:05:28.827Z,45.43
2018-02-20T11:07:55.111Z,42.37
2018-02-20T11:10:21.463Z,40.77
2018-02-20T11:12:47.861Z,45.97
2018-02-20T11:15:14.147Z,44.43
2018-02-20T11:17:40.446Z,45.77
2018-02-20T11:20:06.727Z,46.27
2018-02-20T11:22:33.013Z,48.23
2018-02-20T11:24:59.303Z,45.03
2018-02-20T11:27:25.587Z,41.17
2018-02-20T11:29:52.639Z,42.30
2018-02-20T11:32:18.910Z,46.43
2018-02-20T11:34:45.229Z,41.40
2018-02-20T11:37:11.505Z,38.73
2018-02-20T11:39:37.844Z,40.93
2018-02-20T11:42:05.008Z,45.93
2018-02-20T11:44:32.019Z,51.07
2018-02-20T11:46:58.318Z,43.73
2018-02-20T11:49:24.614Z,40.47
2018-02-20T11:51:50.883Z,37.90
2018-02-20T11:54:17.175Z,40.07
2018-02-20T11:56:43.453Z,36.73
2018-02-20T11:59:09.761Z,37.53
2018-02-20T12:01:36.071Z,39.17
2018-02-20T12:04:02.391Z,38.70
2018-02-20T12:06:28.698Z,40.53
2018-02-20T12:08:54.988Z,40.43
2018-02-20T12:11:21.330Z,34.37
2018-02-20T12:13:47.610Z,36.10
2018-02-20T12:16:13.887Z,36.17
2018-02-20T12:18:40.206Z,42.63
2018-02-20T12:21:06.478Z,33.17
2018-02-20T12:23:33.542Z,32.90
2018-02-20T12:25:59.838Z,31.77
2018-02-20T12:28:26.271Z,34.07
2018-02-20T12:30:52.592Z,38.10
2018-02-20T12:33:18.882Z,37.27
2018-02-20T12:35:45.212Z,35.87
2018-02-20T12:38:11.492Z,36.37
2018-02-20T12:40:37.767Z,29.40
2018-02-20T12:43:04.082Z,37.57
2018-02-20T12:45:30.359Z,31.00
2018-02-20T12:47:57.469Z,32.73
2018-02-20T12:50:23.756Z,33.70
2018-02-20T12:52:50.035Z,35.27
2018-02-20T12:55:16.334Z,33.33
2018-02-20T12:57:43.385Z,36.40
2018-02-20T13:00:09.700Z,36.93
2018-02-20T13:02:36.005Z,32.40
2018-02-20T13:05:02.563Z,29.70
2018-02-20T13:07:28.870Z,38.57
2018-02-20T13:09:55.134Z,34.23
2018-02-20T13:12:21.469Z,36.73
2018-02-20T13:14:47.764Z,41.80
2018-02-20T13:17:14.039Z,35.47
2018-02-20T13:19:40.344Z,36.67
2018-02-20T13:22:06.614Z,37.67
2018-02-20T13:24:33.035Z,36.67
2018-02-20T13:27:00.159Z,34.43
2018-02-20T13:29:26.497Z,34.93
2018-02-20T13:31:52.818Z,41.23
2018-02-20T13:34:19.887Z,39.00
2018-02-20T13:36:46.190Z,38.00
2018-02-20T13:39:12.489Z,42.97
2018-02-20T13:41:38.782Z,32.43
2018-02-20T13:44:05.923Z,38.17
2018-02-20T13:46:32.988Z,42.63
2018-02-20T13:48:59.607Z,39.47
2018-02-20T13:51:25.906Z,49.87
2018-02-20T13:53:52.225Z,47.90
2018-02-20T13:56:19.262Z,39.80
2018-02-20T13:58:45.550Z,33.80
2018-02-20T14:01:12.814Z,41.77
2018-02-20T14:03:39.215Z,43.93
2018-02-20T14:06:06.250Z,40.53
2018-02-20T14:08:33.677Z,51.10
2018-02-20T14:11:01.284Z,52.50
2018-02-20T14:13:27.710Z,46.23
2018-02-20T14:15:54.075Z,44.40
2018-02-20T14:18:21.128Z,41.43
2018-02-20T14:20:47.436Z,41.90
2018-02-20T14:23:13.719Z,44.93
2018-02-20T14:25:40.075Z,37.53
2018-02-20T14:28:06.360Z,41.60
2018-02-20T14:30:33.427Z,45.90
2018-02-20T14:32:59.743Z,40.03
2018-02-20T14:35:26.021Z,40.17
2018-02-20T14:37:52.343Z,45.10
2018-02-20T14:40:19.368Z,39.37
2018-02-20T14:42:45.807Z,41.37
2018-02-20T14:45:12.171Z,40.40
2018-02-20T14:47:38.444Z,42.03
2018-02-20T14:50:04.723Z,42.50
2018-02-20T14:52:31.043Z,42.57
2018-02-20T14:54:57.387Z,44.97
2018-02-20T14:57:23.697Z,45.40
2018-02-20T14:59:50.763Z,46.10
2018-02-20T15:02:17.146Z,43.20
2018-02-20T15:04:44.447Z,39.07
2018-02-20T15:07:10.764Z,45.40
2018-02-20T15:09:37.083Z,40.90
2018-02-20T15:12:03.394Z,40.73
2018-02-20T15:14:29.779Z,36.83
2018-02-20T15:16:56.805Z,41.30
2018-02-20T15:19:23.241Z,38.93
2018-02-20T15:21:49.543Z,35.83
2018-02-20T15:24:15.895Z,35.13
2018-02-20T15:26:42.196Z,39.50
2018-02-20T15:29:08.503Z,37.50
2018-02-20T15:31:34.875Z,41.40
2018-02-20T15:34:02.327Z,45.83
2018-02-20T15:36:28.647Z,47.67
2018-02-20T15:38:55.686Z,50.27
2018-02-20T15:41:21.975Z,46.47
2018-02-20T15:43:48.297Z,46.87
2018-02-20T15:46:15.337Z,46.67
2018-02-20T15:48:42.380Z,52.60
2018-02-20T15:51:09.898Z,47.70
2018-02-20T15:53:36.184Z,48.23
2018-02-20T15:56:02.484Z,47.77
2018-02-20T15:58:28.770Z,54.13
2018-02-20T16:00:55.103Z,57.97
2018-02-20T16:03:21.550Z,50.57
2018-02-20T16:05:47.840Z,54.17
2018-02-20T16:08:14.972Z,49.33
2018-02-20T16:10:41.259Z,54.57
2018-02-20T16:13:08.329Z,47.37
2018-02-20T16:18:38.423Z,62.87
2018-02-20T16:21:04.844Z,60.70
2018-02-20T16:23:31.134Z,57.57
2018-02-20T16:25:58.177Z,60.60
2018-02-20T16:28:25.202Z,59.57
2018-02-20T16:30:51.509Z,63.43
2018-02-20T16:33:17.899Z,58.50
2018-02-20T16:35:44.155Z,62.23
2018-02-20T16:38:11.566Z,64.90
2018-02-20T16:40:37.884Z,63.10
2018-02-20T16:43:04.211Z,63.03
2018-02-20T16:45:30.515Z,56.03
2018-02-20T16:47:56.770Z,67.63
2018-02-20T16:50:24.101Z,65.13
2018-02-20T16:52:50.387Z,61.53
2018-02-20T16:55:16.691Z,64.07
2018-02-20T16:57:43.776Z,64.23
2018-02-20T17:00:10.055Z,61.93
2018-02-20T17:02:36.392Z,68.17
2018-02-20T17:05:03.510Z,71.53
2018-02-20T17:07:29.881Z,66.53
2018-02-20T17:09:56.960Z,68.63
2018-02-20T17:12:23.255Z,68.90
2018-02-20T17:14:49.566Z,62.67
2018-02-20T17:17:15.954Z,67.03
2018-02-20T17:19:42.306Z,67.97
2018-02-20T17:22:08.658Z,74.67
2018-02-20T17:24:35.664Z,69.53
2018-02-20T17:27:02.097Z,81.03
2018-02-20T17:29:29.283Z,69.97
2018-02-20T17:31:55.680Z,75.70
2018-02-20T17:34:22.151Z,71.37
2018-02-20T17:36:48.434Z,70.60
2018-02-20T17:39:14.723Z,81.27
2018-02-20T17:41:41.107Z,71.70
2018-02-20T17:44:07.519Z,77.20
2018-02-20T17:46:33.915Z,79.00
2018-02-20T17:49:00.191Z,65.33
2018-02-20T17:51:26.591Z,74.10
2018-02-20T17:53:53.599Z,78.17
2018-02-20T17:56:19.912Z,70.83
2018-02-20T17:58:46.211Z,77.50
2018-02-20T18:01:12.580Z,78.43
2018-02-20T18:03:38.872Z,70.77
2018-02-20T18:06:05.152Z,68.23
2018-02-20T18:08:31.455Z,80.00
2018-02-20T18:10:57.730Z,75.27
2018-02-20T18:13:24.016Z,106.00
2018-02-20T18:15:51.155Z,125.43
2018-02-20T18:18:17.435Z,138.47
2018-02-20T18:20:43.920Z,105.10
2018-02-20T18:23:11.464Z,82.80
2018-02-20T18:25:41.646Z,86.60
2018-02-20T18:28:08.058Z,79.43
2018-02-20T18:30:34.332Z,75.27
2018-02-20T18:33:00.862Z,70.10
2018-02-20T18:35:27.131Z,71.00
2018-02-20T18:37:53.691Z,70.33
2018-02-20T18:40:20.758Z,78.13
2018-02-20T18:42:47.043Z,61.37
2018-02-20T18:45:13.392Z,74.23
2018-02-20T18:47:39.664Z,71.83
2018-02-20T18:50:06.743Z,66.13
2018-02-20T18:52:33.046Z,64.10
2018-02-20T18:54:59.327Z,66.03
2018-02-20T18:57:25.659Z,60.40
2018-02-20T18:59:52.007Z,59.10
2018-02-20T19:02:18.292Z,63.50
2018-02-20T19:04:44.605Z,55.47
2018-02-20T19:07:10.919Z,56.20
2018-02-20T19:09:37.235Z,62.20
2018-02-20T19:12:03.523Z,58.83
2018-02-20T19:14:30.591Z,65.90
2018-02-20T19:16:56.919Z,61.70
2018-02-20T19:19:23.215Z,58.43
2018-02-20T19:21:49.521Z,71.03
2018-02-20T19:24:15.899Z,62.97
2018-02-20T19:26:42.342Z,59.27
2018-02-20T19:29:09.781Z,57.43
2018-02-20T19:31:37.422Z,60.87
2018-02-20T19:34:04.948Z,58.17
2018-02-20T19:36:32.444Z,60.23
2018-02-20T19:38:58.987Z,59.93
2018-02-20T19:41:26.293Z,58.30
2018-02-20T19:43:54.671Z,67.50
2018-02-20T19:46:21.257Z,60.13
2018-02-20T19:48:48.206Z,60.93
2018-02-20T19:51:15.519Z,60.20
2018-02-20T19:53:42.235Z,65.90
2018-02-20T19:56:09.211Z,57.70
2018-02-20T19:58:35.848Z,54.40
2018-02-20T20:01:02.584Z,55.90
2018-02-20T20:03:30.072Z,56.23
2018-02-20T20:05:56.620Z,55.13
2018-02-20T20:08:22.989Z,61.17
2018-02-20T20:10:49.298Z,58.93
2018-02-20T20:13:15.577Z,56.57
2018-02-20T20:15:41.878Z,52.97
2018-02-20T20:18:08.922Z,66.70
2018-02-20T20:20:37.114Z,54.60
2018-02-20T20:23:01.580Z,59.93
2018-02-20T20:25:27.887Z,61.07
2018-02-20T20:27:54.296Z,60.97
2018-02-20T20:30:20.651Z,61.67
2018-02-20T20:32:46.964Z,59.57
2018-02-20T20:35:13.323Z,62.47
2018-02-20T20:37:41.427Z,63.80
2018-02-20T20:40:07.754Z,57.07
2018-02-20T20:42:34.054Z,61.07
2018-02-20T20:45:01.463Z,64.80
2018-02-20T20:47:28.608Z,66.40
2018-02-20T20:49:54.899Z,61.17
2018-02-20T20:52:21.929Z,66.97
2018-02-20T20:54:50.032Z,58.40
2018-02-20T20:57:16.314Z,65.37
2018-02-20T20:59:43.331Z,65.93
2018-02-20T21:02:09.610Z,63.70
2018-02-20T21:04:35.909Z,71.17
2018-02-20T21:07:02.181Z,65.07
2018-02-20T21:09:29.185Z,68.93
2018-02-20T21:11:55.692Z,65.13
2018-02-20T21:14:21.958Z,65.17
2018-02-20T21:16:49.106Z,61.90
2018-02-20T21:19:15.420Z,65.87
2018-02-20T21:21:41.875Z,66.10
2018-02-20T21:24:08.261Z,69.77
2018-02-20T21:26:34.552Z,73.10
2018-02-20T21:29:01.588Z,68.40
2018-02-20T21:31:27.962Z,77.10
2018-02-20T21:33:54.250Z,71.20
2018-02-20T21:36:20.601Z,72.37
2018-02-20T21:38:46.874Z,84.17
2018-02-20T21:41:13.181Z,75.03
2018-02-20T21:43:39.585Z,96.97
2018-02-20T21:46:06.598Z,82.17
2018-02-20T21:48:32.909Z,77.93
2018-02-20T21:50:59.295Z,90.60
2018-02-20T21:53:25.672Z,75.77
2018-02-20T21:55:52.758Z,79.37
2018-02-20T21:58:19.022Z,84.27
2018-02-20T22:00:46.388Z,72.77
2018-02-20T22:03:15.910Z,80.03
2018-02-20T22:05:42.468Z,79.13
2018-02-20T22:08:09.535Z,79.60
2018-02-20T22:10:35.892Z,79.07
2018-02-20T22:13:02.226Z,82.43
2018-02-20T22:15:30.699Z,85.83
2018-02-20T22:17:57.787Z,77.87
2018-02-20T22:20:24.099Z,88.33
2018-02-20T22:22:51.375Z,88.43
2018-02-20T22:25:18.075Z,82.13
2018-02-20T22:27:44.403Z,88.50
2018-02-20T22:30:10.810Z,93.57
2018-02-20T22:32:37.075Z,88.67
2018-02-20T22:35:03.379Z,85.93
2018-02-20T22:37:29.703Z,96.97
2018-02-20T22:39:55.975Z,96.53
2018-02-20T22:42:22.268Z,93.67
2018-02-20T22:44:48.548Z,87.93
2018-02-20T22:47:15.588Z,90.80
2018-02-20T22:49:42.978Z,97.10
2018-02-20T22:52:09.258Z,90.20
2018-02-20T22:54:35.555Z,99.70
2018-02-20T22:57:01.856Z,87.37
2018-02-20T22:59:28.871Z,87.60
2018-02-20T23:01:55.167Z,96.47
2018-02-20T23:04:21.480Z,93.10
2018-02-20T23:06:47.777Z,87.03
2018-02-20T23:09:14.077Z,92.83
2018-02-20T23:11:44.031Z,101.73
2018-02-20T23:14:10.334Z,86.23
2018-02-20T23:16:36.608Z,100.80
2018-02-20T23:19:02.894Z,90.97
2018-02-20T23:21:29.948Z,103.27
2018-02-20T23:23:56.226Z,98.97
2018-02-20T23:26:22.514Z,95.27
2018-02-20T23:28:48.782Z,95.37
2018-02-20T23:31:15.806Z,111.70
2018-02-20T23:33:42.820Z,100.40
2018-02-20T23:36:09.167Z,95.03
2018-02-20T23:38:36.215Z,93.27
2018-02-20T23:41:02.491Z,110.07
2018-02-20T23:43:28.789Z,104.53
2018-02-20T23:45:55.049Z,89.43
2018-02-20T23:48:21.315Z,95.77
2018-02-20T23:50:47.702Z,95.27
2018-02-20T23:53:20.111Z,90.33
2018-02-20T23:55:46.404Z,100.93
2018-02-20T23:58:12.711Z,96.70
